Portada
METAR-TAF:

METAR-TAF

Aeroports :

Macomb Municipal Airport

Macomb, Illinois, Estats Units d'Amèrica

latitud: 40-31-13N, longitud: 090-39-09W, altitud: 216 m

Observació

L'informe es va fer fa 24 minuts, a les 02:35 UTC
Vent 7 kt del Oest/Nord-Oest
Temperatura 2°C
Humitat 64%
Pressió 1022 hPa
Visibilitat: 16.1 km
Núvols disperses a una alçada de 8500 ft

METAR: KMQB 220235Z AUTO 29007KT 10SM SCT085 02/M04 A3017 RMK AO2 T00151037

Hora: 21:59 (02:59 UTC)


TAF: manca

Observacions i pronòstics meteorològics de més de 4000 aeroports (METAR i TAF).

Les estacions disponibles són els punts grocs i vermells al mapa.

Posi el ratolí al punt desitjat per veure el nom de l'estació.

Feu clic per veure les observacions i els pronòstics meteorològics.

Per canviar el mapa: feu clic els botons verds amb una creu de color negre per apropar; al botó verd amb un guió per allunyar la imatge; o en les fletxes verdes per a mapes adjacents.


METAR-TAF: